Lakeside, MT (59922)

6:21 AM MDT on August 23, 2017 (GMT -0600)
Lakeside | | Change Station

Elev 2930 ft 48.02 °N, 114.23 °W | Updated 14 minutes ago

Clear
Clear
52.5 °F
Feels Like 52.5 °F
N
1.0
Wind Variable Wind from South

Today
High -- | Low -- °F
--% Chance of Precip.
Yesterday
High -- | Low -- °F
Precip. -- in
Pressure 30.01 in
Visibility 4.0 miles
Clouds Few 3800 ft
Dew Point 42 °F
Humidity 68%
Rainfall 0.00 in
Snow Depth Not available.
6:43 AM 8:34 PM
Waxing Crescent, 4% visible
METAR KMSO 231153Z 00000KT 4SM HZ FEW038 11/04 A3007 RMK AO2 SLP162 T01060044 10189 20106 53002
Pressure 30.01 in
Visibility 4.0 miles
Clouds Few 3800 ft
Dew Point 42 °F
Humidity 68%
Rainfall 0.00 in
Snow Depth Not available.
6:43 AM 8:34 PM
Waxing Crescent, 4% visible
METAR KMSO 231153Z 00000KT 4SM HZ FEW038 11/04 A3007 RMK AO2 SLP162 T01060044 10189 20106 53002

Get Severe Weather Alerts

Thanks for signing up!

Be on the lookout for a verification email in your inbox.

You'll start receiving the daily forecast at 6 AM.

×

10-Day Weather Forecast

Almanac

Astronomy

Aug. 23, 2017 Rise Set
Actual Time
Civil Twilight
Nautical Twilight
Astronomical Twilight
Moon
Length of Visible Light
Length of Day
Tomorrow will be .
, % of the Moon is Illuminated

Today's Extremes

State Highs State Lows

Community

WunderPhotos

Category 6

Welcome to Category 6. This is the collective home for Weather Underground's featured writeups by Dr. Jeff Masters (right), Bob Henson (left), Chris Burt, and other regular contributors.

Nearby

Air Quality

  Air Quality AQ Index Pollutant
Not available.

Snow Depth

Station Depth Elevation

Earthquake Activity

City Distance Mag. Time & Date
Minimum magnitude displayed is 2.5.

Coastal Water Temperatures

Place Temperature

Stations

Nearby Weather Stations

Station Location Temp. Windchill Dew Point Humidity Wind Precip. Elev Updated Type
                   

Watches & Warnings

There are currently no watches in effect.